createdAt,value
2019-05-13T00:02:15.360Z,10.33
2019-05-13T00:04:44.983Z,10.23
2019-05-13T00:07:14.641Z,10.19
2019-05-13T00:09:44.388Z,10.23
2019-05-13T00:12:14.004Z,10.23
2019-05-13T00:14:43.966Z,10.22
2019-05-13T00:17:14.552Z,10.21
2019-05-13T00:19:44.458Z,10.19
2019-05-13T00:22:14.251Z,10.20
2019-05-13T00:24:44.423Z,10.19
2019-05-13T00:27:14.239Z,10.22
2019-05-13T00:29:44.419Z,10.19
2019-05-13T00:32:14.360Z,10.15
2019-05-13T00:34:44.632Z,10.12
2019-05-13T00:37:14.795Z,10.09
2019-05-13T00:39:44.676Z,10.04
2019-05-13T00:42:14.379Z,10.02
2019-05-13T00:44:44.470Z,9.99
2019-05-13T00:47:14.365Z,9.96
2019-05-13T00:49:44.007Z,9.95
2019-05-13T00:52:14.303Z,9.87
2019-05-13T00:54:44.277Z,9.83
2019-05-13T00:57:14.003Z,9.82
2019-05-13T00:59:44.399Z,9.78
2019-05-13T01:02:14.170Z,9.74
2019-05-13T01:04:44.257Z,9.69
2019-05-13T01:07:25.285Z,9.62
2019-05-13T01:09:45.369Z,9.60
2019-05-13T01:12:15.090Z,9.59
2019-05-13T01:14:44.702Z,9.54
2019-05-13T01:17:14.473Z,9.54
2019-05-13T01:19:44.090Z,9.49
2019-05-13T01:22:13.727Z,9.51
2019-05-13T01:24:44.134Z,9.52
2019-05-13T01:27:14.149Z,9.40
2019-05-13T01:29:43.923Z,9.42
2019-05-13T01:32:14.406Z,9.38
2019-05-13T01:34:44.461Z,9.34
2019-05-13T01:37:14.171Z,9.30
2019-05-13T01:39:43.902Z,9.27
2019-05-13T01:42:13.875Z,9.25
2019-05-13T01:44:43.878Z,9.20
2019-05-13T01:47:13.569Z,9.20
2019-05-13T01:49:44.023Z,9.19
2019-05-13T01:52:14.000Z,9.19
2019-05-13T01:54:44.286Z,9.13
2019-05-13T01:57:14.380Z,9.06
2019-05-13T01:59:44.092Z,9.02
2019-05-13T02:02:13.942Z,9.04
2019-05-13T02:04:44.024Z,9.06
2019-05-13T02:07:14.451Z,9.07
2019-05-13T02:09:44.559Z,9.08
2019-05-13T02:12:14.264Z,9.01
2019-05-13T02:14:44.471Z,8.98
2019-05-13T02:17:14.730Z,9.01
2019-05-13T02:19:44.368Z,9.00
2019-05-13T02:22:14.714Z,8.96
2019-05-13T02:24:44.749Z,8.97
2019-05-13T02:27:14.782Z,8.95
2019-05-13T02:29:44.862Z,8.90
2019-05-13T02:32:14.493Z,8.94
2019-05-13T02:34:44.151Z,8.94
2019-05-13T02:37:14.078Z,8.88
2019-05-13T02:39:43.735Z,8.87
2019-05-13T02:42:13.565Z,8.83
2019-05-13T02:44:43.838Z,8.80
2019-05-13T02:47:13.669Z,8.80
2019-05-13T02:49:43.375Z,9.01
2019-05-13T02:52:13.543Z,8.86
2019-05-13T02:54:43.395Z,8.79
2019-05-13T02:57:13.031Z,8.73
2019-05-13T02:59:42.768Z,8.68
2019-05-13T03:02:12.707Z,8.78
2019-05-13T03:04:43.363Z,8.72
2019-05-13T03:07:13.298Z,8.67
2019-05-13T03:09:42.912Z,8.63
2019-05-13T03:12:13.329Z,8.63
2019-05-13T03:14:47.964Z,8.59
2019-05-13T03:17:22.049Z,8.51
2019-05-13T03:19:53.073Z,8.50
2019-05-13T03:22:22.521Z,8.45
2019-05-13T03:24:52.633Z,8.47
2019-05-13T03:27:25.138Z,8.46
2019-05-13T03:29:53.775Z,8.45
2019-05-13T03:32:26.175Z,8.44
2019-05-13T03:34:56.702Z,8.43
2019-05-13T03:37:27.462Z,8.38
2019-05-13T03:39:58.575Z,8.42
2019-05-13T03:42:33.557Z,8.36
2019-05-13T03:45:05.510Z,8.27
2019-05-13T03:47:37.619Z,8.32
2019-05-13T03:50:08.572Z,8.39
2019-05-13T03:52:38.201Z,8.32
2019-05-13T03:55:12.812Z,8.29
2019-05-13T03:57:42.624Z,8.20
2019-05-13T04:00:13.467Z,8.17
2019-05-13T04:02:43.738Z,8.18
2019-05-13T04:05:13.804Z,8.18
2019-05-13T04:07:43.734Z,8.14
2019-05-13T04:10:14.193Z,8.12
2019-05-13T04:12:43.880Z,8.14
2019-05-13T04:15:14.999Z,8.14
2019-05-13T04:17:44.775Z,8.13
2019-05-13T04:20:14.735Z,8.11
2019-05-13T04:22:44.499Z,8.14
2019-05-13T04:25:14.348Z,8.14
2019-05-13T04:27:44.436Z,8.17
2019-05-13T04:30:14.761Z,8.26
2019-05-13T04:32:44.544Z,8.19
2019-05-13T04:35:14.367Z,8.17
2019-05-13T04:37:44.202Z,8.13
2019-05-13T04:40:14.133Z,8.17
2019-05-13T04:42:44.101Z,8.17
2019-05-13T04:45:14.122Z,8.15
2019-05-13T04:47:43.825Z,8.09
2019-05-13T04:50:13.879Z,8.15
2019-05-13T04:52:43.685Z,8.25
2019-05-13T04:55:13.526Z,8.51
2019-05-13T04:57:44.374Z,8.52
2019-05-13T05:00:14.723Z,8.43
2019-05-13T05:02:57.558Z,8.39
2019-05-13T05:05:37.746Z,8.37
2019-05-13T05:08:17.583Z,8.32
2019-05-13T05:11:14.769Z,8.29
2019-05-13T05:14:17.634Z,8.26
2019-05-13T05:17:19.170Z,8.25
2019-05-13T05:20:17.646Z,8.23
2019-05-13T05:23:14.210Z,8.32
2019-05-13T05:25:57.403Z,8.31
2019-05-13T05:28:52.020Z,8.31
2019-05-13T05:31:46.739Z,8.38
2019-05-13T05:34:47.945Z,8.43
2019-05-13T05:37:27.979Z,8.46
2019-05-13T05:40:01.750Z,8.59
2019-05-13T05:42:34.822Z,8.62
2019-05-13T05:45:06.836Z,8.68
2019-05-13T05:47:41.758Z,8.77
2019-05-13T05:50:12.299Z,8.75
2019-05-13T05:52:44.047Z,8.88
2019-05-13T05:55:13.802Z,8.93
2019-05-13T05:57:43.797Z,8.93
2019-05-13T06:00:13.989Z,9.00
2019-05-13T06:02:47.207Z,9.01
2019-05-13T06:05:16.964Z,9.21
2019-05-13T06:07:46.887Z,9.17
2019-05-13T06:10:17.444Z,9.16
2019-05-13T06:12:47.614Z,9.18
2019-05-13T06:15:17.395Z,9.24
2019-05-13T06:17:47.090Z,9.21
2019-05-13T06:20:16.875Z,9.21
2019-05-13T06:22:46.630Z,9.29
2019-05-13T06:25:16.375Z,9.32
2019-05-13T06:27:46.052Z,9.40
2019-05-13T06:30:15.805Z,9.43
2019-05-13T06:32:45.831Z,9.46
2019-05-13T06:35:15.513Z,9.39
2019-05-13T06:37:45.360Z,9.42
2019-05-13T06:40:15.185Z,9.47
2019-05-13T06:42:44.827Z,9.35
2019-05-13T06:45:14.646Z,9.40
2019-05-13T06:47:44.289Z,9.50
2019-05-13T06:50:14.116Z,9.51
2019-05-13T06:52:43.877Z,9.50
2019-05-13T06:55:13.870Z,9.51
2019-05-13T06:57:43.487Z,9.58
2019-05-13T07:00:13.734Z,9.61
2019-05-13T07:02:43.489Z,9.57
2019-05-13T07:05:13.284Z,9.58
2019-05-13T07:07:42.899Z,9.65
2019-05-13T07:10:13.128Z,9.64
2019-05-13T07:12:42.797Z,9.70
2019-05-13T07:15:12.848Z,9.73
2019-05-13T07:17:42.481Z,9.79
2019-05-13T07:20:13.037Z,9.80
2019-05-13T07:22:42.722Z,9.85
2019-05-13T07:25:12.671Z,9.91
2019-05-13T07:27:42.578Z,9.95
2019-05-13T07:30:13.479Z,9.99
2019-05-13T07:32:43.182Z,10.05
2019-05-13T07:35:14.666Z,10.03
2019-05-13T07:37:44.681Z,10.12
2019-05-13T07:40:14.720Z,10.17
2019-05-13T07:42:44.349Z,10.21
2019-05-13T07:45:14.156Z,10.25
2019-05-13T07:47:43.771Z,10.36
2019-05-13T07:50:13.809Z,10.40
2019-05-13T07:52:43.459Z,10.44
2019-05-13T07:55:14.966Z,10.52
2019-05-13T07:57:44.610Z,10.59
2019-05-13T08:00:14.943Z,10.66
2019-05-13T08:02:44.667Z,10.65
2019-05-13T08:05:15.995Z,10.73
2019-05-13T08:07:45.895Z,10.86
2019-05-13T08:10:16.224Z,10.92
2019-05-13T08:12:45.990Z,11.02
2019-05-13T08:15:16.370Z,11.07
2019-05-13T08:17:47.672Z,11.11
2019-05-13T08:20:17.779Z,11.11
2019-05-13T08:22:47.393Z,11.20
2019-05-13T08:25:17.043Z,11.22
2019-05-13T08:27:46.665Z,11.24
2019-05-13T08:30:18.231Z,11.35
2019-05-13T08:32:48.207Z,11.37
2019-05-13T08:35:17.878Z,11.42
2019-05-13T08:37:47.498Z,11.45
2019-05-13T08:40:20.160Z,11.52
2019-05-13T08:42:49.010Z,11.63
2019-05-13T08:45:18.767Z,11.61
2019-05-13T08:47:48.424Z,11.73
2019-05-13T08:50:18.287Z,11.66
2019-05-13T08:52:48.376Z,11.76
2019-05-13T08:55:21.222Z,11.85
2019-05-13T08:57:53.147Z,11.95
2019-05-13T09:00:44.953Z,12.05
2019-05-13T09:03:14.684Z,11.97
2019-05-13T09:05:44.361Z,11.99
2019-05-13T09:08:16.515Z,12.02
2019-05-13T09:10:46.797Z,12.11
2019-05-13T09:13:16.745Z,12.14
2019-05-13T09:15:47.999Z,12.19
2019-05-13T09:18:18.606Z,12.19
2019-05-13T09:20:48.411Z,12.20
2019-05-13T09:23:18.157Z,12.44
2019-05-13T09:25:47.939Z,12.49
2019-05-13T09:28:17.569Z,12.29
2019-05-13T09:30:48.513Z,12.46
2019-05-13T09:33:18.159Z,12.68
2019-05-13T09:35:50.115Z,12.72
2019-05-13T09:38:21.873Z,12.96
2019-05-13T09:40:53.053Z,13.02
2019-05-13T09:43:22.455Z,13.00
2019-05-13T09:45:52.660Z,12.92
2019-05-13T09:48:22.893Z,12.95
2019-05-13T09:50:52.933Z,13.05
2019-05-13T09:53:22.881Z,13.21
2019-05-13T09:55:52.822Z,13.35
2019-05-13T09:58:22.799Z,13.40
2019-05-13T10:00:53.298Z,13.41
2019-05-13T10:03:28.750Z,13.44
2019-05-13T10:05:54.464Z,13.47
2019-05-13T10:08:24.218Z,13.62
2019-05-13T10:10:53.916Z,13.64
2019-05-13T10:13:23.649Z,13.57
2019-05-13T10:15:53.365Z,13.68
2019-05-13T10:18:22.987Z,13.71
2019-05-13T10:20:58.709Z,13.74
2019-05-13T10:23:32.456Z,13.87
2019-05-13T10:26:05.236Z,14.05
2019-05-13T10:28:35.467Z,14.01
2019-05-13T10:31:05.875Z,14.10
2019-05-13T10:33:35.728Z,14.24
2019-05-13T10:36:05.757Z,14.23
2019-05-13T10:38:35.470Z,14.32
2019-05-13T10:41:05.426Z,14.47
2019-05-13T10:43:40.244Z,14.67
2019-05-13T10:46:06.703Z,14.86
2019-05-13T10:48:36.333Z,14.76
2019-05-13T10:51:06.188Z,14.74
2019-05-13T10:53:35.834Z,14.99
2019-05-13T10:56:05.674Z,15.31
2019-05-13T10:58:35.318Z,15.47
2019-05-13T11:01:05.518Z,15.69
2019-05-13T11:03:35.180Z,15.46
2019-05-13T11:06:05.219Z,15.42
2019-05-13T11:08:34.908Z,15.25
2019-05-13T11:11:04.768Z,15.13
2019-05-13T11:13:50.564Z,15.04
2019-05-13T11:16:06.619Z,14.98
2019-05-13T11:18:36.435Z,15.10
2019-05-13T11:21:06.244Z,14.96
2019-05-13T11:23:36.008Z,15.13
2019-05-13T11:26:05.789Z,15.50
2019-05-13T11:28:35.615Z,15.61
2019-05-13T11:31:05.413Z,15.62
2019-05-13T11:33:35.091Z,15.75
2019-05-13T11:36:04.811Z,15.50
2019-05-13T11:38:34.588Z,15.42
2019-05-13T11:41:04.879Z,15.41
2019-05-13T11:43:34.490Z,15.34
2019-05-13T11:46:04.247Z,15.49
2019-05-13T11:48:33.986Z,15.81
2019-05-13T11:51:04.480Z,16.41
2019-05-13T11:53:37.398Z,16.62
2019-05-13T11:56:05.891Z,16.92
2019-05-13T11:58:35.650Z,17.08
2019-05-13T12:01:06.554Z,17.34
2019-05-13T12:03:36.219Z,17.62
2019-05-13T12:06:06.005Z,17.59
2019-05-13T12:08:35.723Z,16.95
2019-05-13T12:11:06.681Z,16.65
2019-05-13T12:13:36.601Z,16.01
2019-05-13T12:16:06.569Z,15.55
2019-05-13T12:18:43.102Z,15.35
2019-05-13T12:21:07.736Z,15.42
2019-05-13T12:23:37.355Z,15.87
2019-05-13T12:26:07.069Z,16.40
2019-05-13T12:28:36.711Z,17.09
2019-05-13T12:31:06.494Z,17.72
2019-05-13T12:33:36.289Z,17.97
2019-05-13T12:36:06.127Z,17.91
2019-05-13T12:38:36.353Z,17.63
2019-05-13T12:41:06.490Z,17.79
2019-05-13T12:43:36.176Z,17.29
2019-05-13T12:46:06.156Z,17.02
2019-05-13T12:48:35.783Z,16.76
2019-05-13T12:51:05.575Z,16.86
2019-05-13T12:53:35.378Z,16.76
2019-05-13T12:56:05.546Z,17.00
2019-05-13T12:58:35.200Z,17.46
2019-05-13T13:01:05.132Z,18.16
2019-05-13T13:03:34.777Z,18.60
2019-05-13T13:06:25.075Z,18.99
2019-05-13T13:08:43.442Z,19.22
2019-05-13T13:11:07.446Z,18.68
2019-05-13T13:13:56.841Z,18.44
2019-05-13T13:16:08.842Z,18.33
2019-05-13T13:18:38.523Z,17.86
2019-05-13T13:21:08.560Z,18.14
2019-05-13T13:23:38.475Z,18.61
2019-05-13T13:26:15.395Z,18.79
2019-05-13T13:28:43.152Z,18.44
2019-05-13T13:31:12.942Z,18.20
2019-05-13T13:33:44.657Z,17.90
2019-05-13T13:36:15.880Z,17.94
2019-05-13T13:38:45.470Z,17.96
2019-05-13T13:41:22.218Z,17.79
2019-05-13T13:43:46.460Z,17.67
2019-05-13T13:46:36.979Z,17.33
2019-05-13T13:48:47.524Z,17.67
2019-05-13T13:51:17.159Z,18.22
2019-05-13T13:53:46.793Z,18.78
2019-05-13T13:56:16.411Z,19.01
2019-05-13T13:58:46.122Z,18.93
2019-05-13T14:01:19.923Z,18.68
2019-05-13T14:03:47.208Z,18.71
2019-05-13T14:07:08.129Z,19.24
2019-05-13T14:08:48.166Z,19.60
2019-05-13T14:11:17.847Z,19.51
2019-05-13T14:13:47.515Z,19.66
2019-05-13T14:16:28.029Z,19.71
2019-05-13T14:18:48.516Z,19.35
2019-05-13T14:21:18.169Z,18.88
2019-05-13T14:23:47.784Z,18.49
2019-05-13T14:26:17.515Z,18.53
2019-05-13T14:28:47.140Z,18.65
2019-05-13T14:31:16.764Z,19.04
2019-05-13T14:33:46.408Z,18.79
2019-05-13T14:36:16.206Z,18.53
2019-05-13T14:38:45.854Z,18.46
2019-05-13T14:41:15.544Z,18.46
2019-05-13T14:43:45.262Z,18.34
2019-05-13T14:46:14.880Z,18.17
2019-05-13T14:48:44.552Z,18.44
2019-05-13T14:51:14.441Z,19.17
2019-05-13T14:53:44.079Z,19.84
2019-05-13T14:56:14.546Z,20.24
2019-05-13T14:58:44.558Z,20.60
2019-05-13T15:01:19.855Z,21.04
2019-05-13T15:03:45.555Z,20.35
2019-05-13T15:06:15.269Z,19.66
2019-05-13T15:08:44.886Z,19.08
2019-05-13T15:11:14.548Z,18.52
2019-05-13T15:13:44.169Z,18.56
2019-05-13T15:16:13.814Z,19.40
2019-05-13T15:18:43.793Z,19.67
2019-05-13T15:21:13.414Z,19.64
2019-05-13T15:23:43.065Z,19.47
2019-05-13T15:26:12.705Z,19.44
2019-05-13T15:28:42.386Z,19.04
2019-05-13T15:31:12.213Z,19.12
2019-05-13T15:33:42.449Z,19.22
2019-05-13T15:36:12.167Z,18.96
2019-05-13T15:38:42.110Z,18.59
2019-05-13T15:41:15.427Z,18.44
2019-05-13T15:43:43.374Z,18.39
2019-05-13T15:46:13.566Z,18.01
2019-05-13T15:48:43.340Z,18.01
2019-05-13T15:51:13.112Z,18.06
2019-05-13T15:53:43.709Z,18.53
2019-05-13T15:56:13.458Z,18.64
2019-05-13T15:58:44.440Z,18.60
2019-05-13T16:01:14.598Z,18.58
2019-05-13T16:03:44.308Z,18.88
2019-05-13T16:06:13.933Z,19.09
2019-05-13T16:08:43.584Z,19.36
2019-05-13T16:11:13.352Z,19.54
2019-05-13T16:13:43.275Z,20.23
2019-05-13T16:16:12.969Z,20.56
2019-05-13T16:18:42.615Z,20.40
2019-05-13T16:21:12.300Z,19.67
2019-05-13T16:23:42.902Z,19.10
2019-05-13T16:26:12.719Z,18.65
2019-05-13T16:28:42.666Z,18.81
2019-05-13T16:31:12.276Z,19.40
2019-05-13T16:33:41.965Z,19.88
2019-05-13T16:36:12.757Z,20.02
2019-05-13T16:38:42.564Z,20.49
2019-05-13T16:41:12.651Z,20.24
2019-05-13T16:43:42.832Z,20.43
2019-05-13T16:46:12.534Z,20.38
2019-05-13T16:48:42.151Z,20.20
2019-05-13T16:51:12.758Z,20.20
2019-05-13T16:53:42.690Z,19.98
2019-05-13T16:56:25.703Z,19.51
2019-05-13T16:58:43.751Z,19.23
2019-05-13T17:01:13.399Z,18.95
2019-05-13T17:03:43.036Z,18.49
2019-05-13T17:06:12.901Z,18.24
2019-05-13T17:08:42.740Z,18.10
2019-05-13T17:11:12.525Z,18.04
2019-05-13T17:13:42.741Z,18.06
2019-05-13T17:16:12.361Z,17.90
2019-05-13T17:18:42.008Z,17.83
2019-05-13T17:21:11.633Z,17.64
2019-05-13T17:23:41.847Z,17.53
2019-05-13T17:26:11.855Z,17.33
2019-05-13T17:28:41.913Z,17.40
2019-05-13T17:31:11.816Z,17.24
2019-05-13T17:33:41.625Z,17.03
2019-05-13T17:36:12.395Z,17.03
2019-05-13T17:38:42.729Z,16.77
2019-05-13T17:41:12.419Z,16.68
2019-05-13T17:43:42.139Z,16.69
2019-05-13T17:46:11.784Z,16.60
2019-05-13T17:48:41.748Z,16.38
2019-05-13T17:51:13.139Z,16.36
2019-05-13T17:53:42.998Z,16.48
2019-05-13T17:56:12.616Z,16.31
2019-05-13T17:58:42.269Z,16.25
2019-05-13T18:01:12.134Z,16.13
2019-05-13T18:03:42.393Z,16.05
2019-05-13T18:06:14.334Z,15.95
2019-05-13T18:08:46.508Z,15.91
2019-05-13T18:11:21.726Z,15.88
2019-05-13T18:13:51.707Z,15.86
2019-05-13T18:16:24.183Z,15.83
2019-05-13T18:18:54.275Z,15.76
2019-05-13T18:21:24.305Z,15.80
2019-05-13T18:23:54.491Z,15.67
2019-05-13T18:26:24.474Z,15.58
2019-05-13T18:28:54.320Z,15.55
2019-05-13T18:31:25.014Z,15.55
2019-05-13T18:33:55.370Z,15.52
2019-05-13T18:36:25.464Z,15.44
2019-05-13T18:38:55.209Z,15.43
2019-05-13T18:41:25.463Z,15.38
2019-05-13T18:43:55.429Z,15.43
2019-05-13T18:46:25.753Z,15.29
2019-05-13T18:48:58.915Z,15.32
2019-05-13T18:51:28.030Z,15.27
2019-05-13T18:53:57.643Z,15.31
2019-05-13T18:56:27.446Z,15.25
2019-05-13T18:58:57.276Z,15.20
2019-05-13T19:01:26.963Z,15.18
2019-05-13T19:03:57.338Z,15.07
2019-05-13T19:06:27.050Z,15.01
2019-05-13T19:08:56.756Z,14.97
2019-05-13T19:11:26.495Z,14.96
2019-05-13T19:13:56.251Z,14.93
2019-05-13T19:16:25.995Z,14.84
2019-05-13T19:18:55.867Z,14.82
2019-05-13T19:21:25.536Z,14.69
2019-05-13T19:23:55.303Z,14.71
2019-05-13T19:26:25.029Z,14.67
2019-05-13T19:28:54.822Z,14.53
2019-05-13T19:31:24.881Z,14.49
2019-05-13T19:33:54.839Z,14.44
2019-05-13T19:36:24.925Z,14.33
2019-05-13T19:38:54.793Z,14.33
2019-05-13T19:41:24.425Z,14.30
2019-05-13T19:43:54.118Z,14.24
2019-05-13T19:46:25.731Z,14.17
2019-05-13T19:48:55.250Z,14.16
2019-05-13T19:51:28.188Z,14.13
2019-05-13T19:53:56.582Z,14.13
2019-05-13T19:56:26.371Z,14.11
2019-05-13T19:58:56.079Z,14.01
2019-05-13T20:01:25.718Z,13.96
2019-05-13T20:03:55.591Z,13.85
2019-05-13T20:06:25.315Z,13.82
2019-05-13T20:08:55.012Z,13.79
2019-05-13T20:11:24.720Z,13.70
2019-05-13T20:13:54.448Z,13.64
2019-05-13T20:16:24.398Z,13.59
2019-05-13T20:18:54.113Z,13.48
2019-05-13T20:21:23.884Z,13.34
2019-05-13T20:23:54.726Z,13.30
2019-05-13T20:26:24.588Z,13.06
2019-05-13T20:28:54.545Z,13.10
2019-05-13T20:31:24.346Z,13.24
2019-05-13T20:33:54.344Z,13.25
2019-05-13T20:36:24.095Z,13.24
2019-05-13T20:38:53.756Z,13.32
2019-05-13T20:41:23.426Z,13.07
2019-05-13T20:43:53.278Z,13.13
2019-05-13T20:46:23.341Z,12.91
2019-05-13T20:48:53.755Z,12.81
2019-05-13T20:51:27.160Z,12.94
2019-05-13T20:53:57.169Z,12.97
2019-05-13T20:56:27.520Z,12.89
2019-05-13T20:58:57.649Z,12.93
2019-05-13T21:01:27.647Z,12.96
2019-05-13T21:03:57.488Z,12.86
2019-05-13T21:06:27.285Z,12.74
2019-05-13T21:08:56.885Z,12.58
2019-05-13T21:11:26.525Z,12.52
2019-05-13T21:13:56.145Z,12.56
2019-05-13T21:16:25.882Z,12.44
2019-05-13T21:18:55.511Z,12.36
2019-05-13T21:21:25.210Z,12.28
2019-05-13T21:23:54.860Z,12.23
2019-05-13T21:26:24.646Z,12.32
2019-05-13T21:28:54.288Z,12.25
2019-05-13T21:31:23.984Z,12.20
2019-05-13T21:33:53.631Z,12.12
2019-05-13T21:36:23.318Z,12.03
2019-05-13T21:38:52.961Z,12.00
2019-05-13T21:41:22.584Z,11.96
2019-05-13T21:43:52.225Z,11.87
2019-05-13T21:46:21.924Z,11.78
2019-05-13T21:48:52.065Z,11.74
2019-05-13T21:51:22.292Z,11.80
2019-05-13T21:53:52.110Z,11.83
2019-05-13T21:56:23.189Z,12.01
2019-05-13T21:58:53.093Z,11.85
2019-05-13T22:01:23.405Z,11.95
2019-05-13T22:03:53.154Z,11.96
2019-05-13T22:06:22.806Z,11.88
2019-05-13T22:08:52.422Z,11.77
2019-05-13T22:11:22.331Z,11.68
2019-05-13T22:13:52.071Z,11.69
2019-05-13T22:16:21.744Z,11.59
2019-05-13T22:18:52.401Z,11.48
2019-05-13T22:21:22.193Z,11.44
2019-05-13T22:23:51.933Z,11.44
2019-05-13T22:26:22.246Z,11.41
2019-05-13T22:28:52.034Z,11.36
2019-05-13T22:31:22.242Z,11.35
2019-05-13T22:33:52.048Z,11.33
2019-05-13T22:36:21.679Z,11.32
2019-05-13T22:38:51.793Z,11.25
2019-05-13T22:41:22.176Z,11.21
2019-05-13T22:43:58.215Z,11.13
2019-05-13T22:46:23.401Z,11.04
2019-05-13T22:48:53.020Z,11.00
2019-05-13T22:51:22.674Z,10.96
2019-05-13T22:53:52.286Z,10.94
2019-05-13T22:56:22.363Z,10.92
2019-05-13T22:58:52.126Z,10.93
2019-05-13T23:01:22.007Z,10.91
2019-05-13T23:03:51.642Z,10.98
2019-05-13T23:06:21.710Z,11.03
2019-05-13T23:08:51.531Z,11.11
2019-05-13T23:11:21.889Z,11.10
2019-05-13T23:13:51.645Z,11.01
2019-05-13T23:16:22.263Z,11.14
2019-05-13T23:18:51.998Z,11.14
2019-05-13T23:21:21.622Z,11.10
2019-05-13T23:23:51.493Z,11.14
2019-05-13T23:26:21.262Z,11.06
2019-05-13T23:28:52.229Z,11.00
2019-05-13T23:31:22.007Z,10.93
2019-05-13T23:33:51.733Z,10.77
2019-05-13T23:36:21.422Z,10.67
2019-05-13T23:38:51.724Z,10.60
2019-05-13T23:41:21.841Z,10.57
2019-05-13T23:43:51.652Z,10.52
2019-05-13T23:46:22.284Z,10.47
2019-05-13T23:48:52.184Z,10.40
2019-05-13T23:51:21.896Z,10.35
2019-05-13T23:53:51.509Z,10.29
2019-05-13T23:56:21.839Z,10.27
2019-05-13T23:58:52.031Z,10.23
